プラハ の空港の天気 - METARとTAF

ルズィニエ国際空港(プラハ) ( LKPR / PRG ) - チェコ プラハ
飛行場実況気象(Metar)
観測時間05/25 04:30 CEST (05/25 02:30 UTC)
風向・風速北北東 2m/s
視程10km以上
天気現象
なし
気温15℃
湿度82%
気圧1019hPa
METARLKPR 250230Z 02003KT CAVOK 15/12 Q1019 NOSIG
過去の天気等 Google飛行場航空写真 Wunderground天気予報

過去48時間のMETAR

飛行場予報(TAF)
発表時間: 5/25 01:00 CEST (5/24 23:00 UTC)
予報対象時間: 25日2時 CEST ~ 26日8時 CEST
風向・風速不定 1m/s
視程10km以上
全天の4割程度の雲 雲底高度 1,220m
25日2時 CEST ~ 25日4時 CEST に一時的に
天気現象弱いしゅう雨
全天の4割程度の塔状積雲 雲底高度 910m
25日4時 CEST ~ 25日8時 CEST に一時的に
視程5,000m
天気現象もや
全天の4割程度の雲 雲底高度 300m
25日8時 CEST ~ 25日10時 CEST に徐々に
風向・風速東北東 6m/s
25日13時 CEST ~ 25日21時 CEST に 確率 30% で一時的に
視程8,000m
天気現象しゅう雨
全天の4割程度の塔状積雲 雲底高度 760m
25日21時 CEST ~ 25日23時 CEST に徐々に
風向・風速不定 1m/s
TAF LKPR 242300Z 2500/2606 VRB02KT 9999 SCT040
TEMPO 2500/2502 -SHRA SCT030TCU
TEMPO 2502/2506 5000 BR SCT010
BECMG 2506/2508 06011KT
PROB30 TEMPO 2511/2519 8000 SHRA SCT025TCU
BECMG 2519/2521 VRB02KT